createdAt,value
2023-03-25T00:00:15.751Z,15.80
2023-03-25T00:02:48.447Z,15.80
2023-03-25T00:05:17.328Z,15.80
2023-03-25T00:07:45.398Z,15.80
2023-03-25T00:10:13.701Z,15.80
2023-03-25T00:12:42.968Z,15.80
2023-03-25T00:15:11.744Z,15.80
2023-03-25T00:17:38.868Z,15.80
2023-03-25T00:20:09.844Z,15.70
2023-03-25T00:22:41.022Z,15.70
2023-03-25T00:25:10.001Z,15.60
2023-03-25T00:27:36.927Z,15.60
2023-03-25T00:30:04.513Z,15.60
2023-03-25T00:32:31.420Z,15.50
2023-03-25T00:34:59.841Z,15.50
2023-03-25T00:37:27.276Z,15.50
2023-03-25T00:39:54.127Z,15.50
2023-03-25T00:42:26.477Z,15.50
2023-03-25T00:44:54.192Z,15.50
2023-03-25T00:47:22.181Z,15.50
2023-03-25T00:49:50.060Z,15.50
2023-03-25T00:52:18.323Z,15.60
2023-03-25T00:54:45.913Z,15.50
2023-03-25T00:57:13.331Z,15.50
2023-03-25T00:59:40.222Z,15.50
2023-03-25T01:02:07.237Z,15.50
2023-03-25T01:04:35.305Z,15.50
2023-03-25T01:07:03.413Z,15.40
2023-03-25T01:09:31.255Z,15.40
2023-03-25T01:11:58.043Z,15.40
2023-03-25T01:14:27.729Z,15.40
2023-03-25T01:16:55.096Z,15.40
2023-03-25T01:19:23.330Z,15.30
2023-03-25T01:21:50.319Z,15.30
2023-03-25T01:24:17.465Z,15.30
2023-03-25T01:26:46.056Z,15.20
2023-03-25T01:29:15.456Z,15.20
2023-03-25T01:31:42.473Z,15.20
2023-03-25T01:34:09.306Z,15.20
2023-03-25T01:36:37.495Z,15.20
2023-03-25T01:39:05.748Z,15.20
2023-03-25T01:41:48.687Z,15.10
2023-03-25T01:44:20.051Z,15.10
2023-03-25T01:46:49.867Z,15.00
2023-03-25T01:49:30.103Z,15.00
2023-03-25T01:52:03.005Z,14.90
2023-03-25T01:54:30.894Z,14.90
2023-03-25T01:56:58.149Z,14.90
2023-03-25T01:59:28.503Z,14.80
2023-03-25T02:01:58.313Z,14.80
2023-03-25T02:05:00.169Z,14.70
2023-03-25T02:07:33.509Z,14.70
2023-03-25T02:10:08.501Z,14.70
2023-03-25T02:12:35.389Z,14.60
2023-03-25T02:15:05.256Z,14.60
2023-03-25T02:17:59.829Z,14.70
2023-03-25T02:20:29.651Z,14.60
2023-03-25T02:23:22.066Z,14.60
2023-03-25T02:26:05.369Z,14.60
2023-03-25T02:28:41.271Z,14.50
2023-03-25T02:31:30.180Z,14.50
2023-03-25T02:34:08.847Z,14.50
2023-03-25T02:37:13.299Z,14.40
2023-03-25T02:39:52.713Z,14.40
2023-03-25T02:42:37.652Z,14.40
2023-03-25T02:45:36.951Z,14.40
2023-03-25T02:48:12.502Z,14.40
2023-03-25T02:50:44.163Z,14.30
2023-03-25T02:53:17.130Z,14.30
2023-03-25T02:55:45.217Z,14.20
2023-03-25T02:58:16.762Z,14.10
2023-03-25T03:00:44.534Z,14.10
2023-03-25T03:03:11.778Z,14.10
2023-03-25T03:05:43.813Z,14.10
2023-03-25T03:08:19.149Z,14.00
2023-03-25T03:11:07.442Z,14.00
2023-03-25T03:13:47.231Z,13.90
2023-03-25T03:16:24.840Z,13.90
2023-03-25T03:18:58.737Z,13.90
2023-03-25T03:21:47.449Z,13.90
2023-03-25T03:24:27.710Z,13.90
2023-03-25T03:27:02.685Z,13.90
2023-03-25T03:29:35.757Z,13.90
2023-03-25T03:32:08.972Z,13.90
2023-03-25T03:34:55.005Z,13.90
2023-03-25T03:37:32.493Z,13.90
2023-03-25T03:39:59.444Z,13.80
2023-03-25T03:42:41.441Z,13.80
2023-03-25T03:45:13.941Z,13.80
2023-03-25T03:47:47.645Z,13.80
2023-03-25T03:50:26.096Z,13.80
2023-03-25T03:53:19.451Z,13.80
2023-03-25T03:55:55.013Z,13.70
2023-03-25T03:58:30.020Z,13.70
2023-03-25T04:01:13.912Z,13.60
2023-03-25T04:03:53.398Z,13.50
2023-03-25T04:06:56.894Z,13.50
2023-03-25T04:09:55.152Z,13.40
2023-03-25T04:12:27.994Z,13.30
2023-03-25T04:15:01.644Z,13.30
2023-03-25T04:17:33.137Z,13.20
2023-03-25T04:20:00.455Z,13.20
2023-03-25T04:22:27.524Z,13.20
2023-03-25T04:24:56.159Z,13.20
2023-03-25T04:27:29.918Z,13.20
2023-03-25T04:29:57.789Z,13.20
2023-03-25T04:32:27.847Z,13.10
2023-03-25T04:34:57.869Z,13.10
2023-03-25T04:37:25.730Z,13.10
2023-03-25T04:39:53.961Z,13.10
2023-03-25T04:42:20.795Z,13.10
2023-03-25T04:44:47.582Z,13.10
2023-03-25T04:47:16.439Z,13.10
2023-03-25T04:49:45.201Z,13.10
2023-03-25T04:52:12.131Z,13.20
2023-03-25T04:54:40.159Z,13.10
2023-03-25T04:57:10.336Z,13.10
2023-03-25T04:59:37.225Z,13.10
2023-03-25T05:02:05.903Z,13.10
2023-03-25T05:04:33.388Z,13.10
2023-03-25T05:07:00.178Z,13.10
2023-03-25T05:09:26.991Z,13.10
2023-03-25T05:11:54.103Z,13.10
2023-03-25T05:14:21.693Z,13.20
2023-03-25T05:16:49.045Z,13.20
2023-03-25T05:19:18.907Z,13.20
2023-03-25T05:21:46.403Z,13.20
2023-03-25T05:24:13.889Z,13.20
2023-03-25T05:26:42.184Z,13.20
2023-03-25T05:29:14.330Z,13.20
2023-03-25T05:31:42.536Z,13.30
2023-03-25T05:34:09.367Z,13.30
2023-03-25T05:36:36.168Z,13.30
2023-03-25T05:39:04.748Z,13.40
2023-03-25T05:41:38.813Z,13.40
2023-03-25T05:44:10.525Z,13.40
2023-03-25T05:46:37.306Z,13.50
2023-03-25T05:49:04.214Z,13.50
2023-03-25T05:51:37.576Z,13.50
2023-03-25T05:54:10.960Z,13.50
2023-03-25T05:56:38.864Z,13.50
2023-03-25T05:59:05.795Z,13.50
2023-03-25T06:01:34.347Z,13.50
2023-03-25T06:04:03.151Z,13.50
2023-03-25T06:06:32.367Z,13.50
2023-03-25T06:08:59.559Z,13.60
2023-03-25T06:11:26.319Z,13.60
2023-03-25T06:13:53.177Z,13.60
2023-03-25T06:16:29.981Z,13.60
2023-03-25T06:18:59.963Z,13.60
2023-03-25T06:21:35.069Z,13.60
2023-03-25T06:24:02.498Z,13.70
2023-03-25T06:26:29.578Z,13.70
2023-03-25T06:28:56.422Z,13.70
2023-03-25T06:31:26.737Z,13.70
2023-03-25T06:33:54.878Z,13.70
2023-03-25T06:36:21.959Z,13.80
2023-03-25T06:38:50.400Z,13.80
2023-03-25T06:41:21.877Z,13.90
2023-03-25T06:43:49.553Z,13.90
2023-03-25T06:46:16.966Z,13.90
2023-03-25T06:48:44.053Z,13.90
2023-03-25T06:51:11.080Z,13.90
2023-03-25T06:53:37.906Z,14.00
2023-03-25T06:56:05.049Z,14.00
2023-03-25T06:58:35.209Z,14.00
2023-03-25T07:01:07.067Z,14.10
2023-03-25T07:03:36.379Z,14.10
2023-03-25T07:06:03.769Z,14.10
2023-03-25T07:08:30.754Z,14.10
2023-03-25T07:11:05.258Z,14.20
2023-03-25T07:13:32.021Z,14.20
2023-03-25T07:15:59.599Z,14.30
2023-03-25T07:18:26.638Z,14.30
2023-03-25T07:20:54.677Z,14.30
2023-03-25T07:23:21.469Z,14.40
2023-03-25T07:25:48.274Z,14.40
2023-03-25T07:28:15.506Z,14.40
2023-03-25T07:30:42.315Z,14.50
2023-03-25T07:33:10.133Z,14.50
2023-03-25T07:35:37.193Z,14.50
2023-03-25T07:38:04.070Z,14.40
2023-03-25T07:40:31.068Z,14.50
2023-03-25T07:42:57.936Z,14.40
2023-03-25T07:45:25.471Z,14.40
2023-03-25T07:47:53.353Z,14.40
2023-03-25T07:50:24.921Z,14.50
2023-03-25T07:52:53.839Z,14.50
2023-03-25T07:55:21.053Z,14.50
2023-03-25T07:57:47.834Z,14.50
2023-03-25T08:00:14.799Z,14.60
2023-03-25T08:02:41.947Z,14.60
2023-03-25T08:05:09.462Z,14.50
2023-03-25T08:07:36.387Z,14.60
2023-03-25T08:10:03.706Z,14.60
2023-03-25T08:12:30.632Z,14.60
2023-03-25T08:14:57.571Z,14.70
2023-03-25T08:17:24.438Z,14.70
2023-03-25T08:19:51.242Z,14.70
2023-03-25T08:22:18.045Z,14.70
2023-03-25T08:24:44.799Z,14.70
2023-03-25T08:27:15.058Z,14.70
2023-03-25T08:29:43.737Z,14.70
2023-03-25T08:32:10.769Z,14.80
2023-03-25T08:34:40.012Z,14.80
2023-03-25T08:37:08.091Z,14.80
2023-03-25T08:39:39.769Z,14.90
2023-03-25T08:42:08.264Z,15.00
2023-03-25T08:44:35.730Z,15.00
2023-03-25T08:47:02.564Z,15.00
2023-03-25T08:49:29.463Z,15.00
2023-03-25T08:51:57.998Z,15.00
2023-03-25T08:54:29.233Z,15.00
2023-03-25T08:56:56.097Z,15.00
2023-03-25T08:59:23.048Z,15.00
2023-03-25T09:01:49.966Z,15.10
2023-03-25T09:04:16.877Z,15.20
2023-03-25T09:06:47.924Z,15.20
2023-03-25T09:09:30.564Z,15.20
2023-03-25T09:11:57.322Z,15.30
2023-03-25T09:14:24.073Z,15.30
2023-03-25T09:16:50.936Z,15.30
2023-03-25T09:19:17.760Z,15.40
2023-03-25T09:21:44.481Z,15.40
2023-03-25T09:24:12.647Z,15.50
2023-03-25T09:26:39.948Z,15.60
2023-03-25T09:29:06.769Z,15.60
2023-03-25T09:31:33.690Z,15.70
2023-03-25T09:34:01.135Z,15.70
2023-03-25T09:36:27.940Z,15.80
2023-03-25T09:38:54.690Z,15.90
2023-03-25T09:41:39.372Z,15.90
2023-03-25T09:44:19.021Z,15.90
2023-03-25T09:46:46.129Z,16.00
2023-03-25T09:49:21.528Z,16.10
2023-03-25T09:51:50.961Z,16.20
2023-03-25T09:54:49.537Z,16.20
2023-03-25T09:57:44.034Z,16.30
2023-03-25T10:00:22.600Z,16.40
2023-03-25T10:03:28.651Z,16.50
2023-03-25T10:06:17.802Z,16.60
2023-03-25T10:08:50.461Z,16.60
2023-03-25T10:11:41.179Z,16.60
2023-03-25T10:14:30.556Z,16.60
2023-03-25T10:17:35.476Z,16.70
2023-03-25T10:20:07.167Z,16.60
2023-03-25T10:22:54.183Z,16.50
2023-03-25T10:25:26.811Z,16.50
2023-03-25T10:27:55.882Z,16.50
2023-03-25T10:30:30.401Z,16.60
2023-03-25T10:32:59.254Z,16.60
2023-03-25T10:35:30.053Z,16.80
2023-03-25T10:38:13.807Z,16.80
2023-03-25T10:40:44.825Z,16.90
2023-03-25T10:43:23.886Z,17.00
2023-03-25T10:45:54.846Z,17.00
2023-03-25T10:48:25.668Z,17.00
2023-03-25T10:50:58.675Z,17.00
2023-03-25T10:53:27.693Z,17.00
2023-03-25T10:56:03.821Z,17.00
2023-03-25T10:58:37.284Z,17.10
2023-03-25T11:01:15.501Z,17.10
2023-03-25T11:03:43.966Z,17.20
2023-03-25T11:06:24.355Z,17.30
2023-03-25T11:09:15.426Z,17.40
2023-03-25T11:11:43.483Z,17.40
2023-03-25T11:14:13.874Z,17.30
2023-03-25T11:16:44.214Z,17.40
2023-03-25T11:19:18.615Z,17.40
2023-03-25T11:21:48.872Z,17.40
2023-03-25T11:24:19.331Z,17.40
2023-03-25T11:26:48.662Z,17.40
2023-03-25T11:29:20.498Z,17.40
2023-03-25T11:32:06.830Z,17.40
2023-03-25T11:34:42.139Z,17.40
2023-03-25T11:37:22.413Z,17.30
2023-03-25T11:39:55.650Z,17.30
2023-03-25T11:42:26.077Z,17.20
2023-03-25T11:44:54.929Z,17.30
2023-03-25T11:47:35.184Z,17.30
2023-03-25T11:50:02.998Z,17.40
2023-03-25T11:52:47.148Z,17.40
2023-03-25T11:55:21.589Z,17.40
2023-03-25T11:57:50.740Z,17.50
2023-03-25T12:00:18.375Z,17.50
2023-03-25T12:02:45.378Z,17.50
2023-03-25T12:05:16.577Z,17.50
2023-03-25T12:07:49.377Z,17.40
2023-03-25T12:10:32.054Z,17.40
2023-03-25T12:13:33.034Z,17.50
2023-03-25T12:16:21.075Z,17.50
2023-03-25T12:19:19.946Z,17.50
2023-03-25T12:22:08.664Z,17.50
2023-03-25T12:25:02.977Z,17.50
2023-03-25T12:27:56.499Z,17.40
2023-03-25T12:30:53.929Z,17.40
2023-03-25T12:33:56.288Z,17.30
2023-03-25T12:36:38.992Z,17.40
2023-03-25T12:39:39.534Z,17.40
2023-03-25T12:42:48.645Z,17.40
2023-03-25T12:45:48.943Z,17.40
2023-03-25T12:48:45.174Z,17.40
2023-03-25T12:51:21.282Z,17.40
2023-03-25T12:54:02.614Z,17.40
2023-03-25T12:56:44.136Z,17.40
2023-03-25T12:59:44.617Z,17.50
2023-03-25T13:02:35.389Z,17.50
2023-03-25T13:05:39.203Z,17.50
2023-03-25T13:08:18.734Z,17.60
2023-03-25T13:10:51.254Z,17.60
2023-03-25T13:13:24.314Z,17.60
2023-03-25T13:16:06.373Z,17.70
2023-03-25T13:18:46.226Z,17.80
2023-03-25T13:21:27.640Z,17.80
2023-03-25T13:24:07.270Z,17.70
2023-03-25T13:26:36.214Z,17.70
2023-03-25T13:29:07.048Z,17.70
2023-03-25T13:31:37.997Z,17.60
2023-03-25T13:34:40.101Z,17.20
2023-03-25T13:37:21.982Z,17.10
2023-03-25T13:40:15.073Z,17.00
2023-03-25T13:42:48.972Z,17.00
2023-03-25T13:45:21.565Z,17.00
2023-03-25T13:47:52.946Z,16.80
2023-03-25T13:50:27.393Z,16.70
2023-03-25T13:53:03.462Z,16.70
2023-03-25T13:55:40.841Z,16.60
2023-03-25T13:58:13.168Z,16.70
2023-03-25T14:01:01.963Z,16.70
2023-03-25T14:03:47.716Z,16.70
2023-03-25T14:06:29.605Z,16.70
2023-03-25T14:09:05.462Z,16.80
2023-03-25T14:11:51.436Z,16.80
2023-03-25T14:14:22.453Z,16.80
2023-03-25T14:16:58.921Z,16.90
2023-03-25T14:19:38.477Z,16.90
2023-03-25T14:22:16.042Z,17.00
2023-03-25T14:24:44.990Z,17.00
2023-03-25T14:27:26.514Z,17.10
2023-03-25T14:30:27.596Z,17.00
2023-03-25T14:32:58.842Z,17.10
2023-03-25T14:35:34.719Z,17.20
2023-03-25T14:38:07.668Z,17.30
2023-03-25T14:43:19.707Z,17.30
2023-03-25T14:46:04.596Z,17.30
2023-03-25T14:48:34.415Z,17.30
2023-03-25T14:51:42.625Z,17.30
2023-03-25T14:54:29.687Z,17.30
2023-03-25T14:57:15.990Z,17.30
2023-03-25T14:59:51.952Z,17.30
2023-03-25T15:02:22.880Z,17.20
2023-03-25T15:05:12.117Z,17.20
2023-03-25T15:07:54.068Z,17.20
2023-03-25T15:10:25.535Z,16.80
2023-03-25T15:13:21.680Z,16.40
2023-03-25T15:15:50.402Z,16.20
2023-03-25T15:18:35.789Z,16.20
2023-03-25T15:21:09.292Z,15.90
2023-03-25T15:24:03.752Z,15.80
2023-03-25T15:26:50.372Z,15.80
2023-03-25T15:29:54.673Z,15.70
2023-03-25T15:32:24.582Z,15.60
2023-03-25T15:35:25.493Z,15.50
2023-03-25T15:37:58.521Z,15.50
2023-03-25T15:41:04.581Z,15.50
2023-03-25T15:44:07.867Z,15.50
2023-03-25T15:46:37.433Z,15.50
2023-03-25T15:49:25.441Z,15.40
2023-03-25T15:52:19.771Z,15.30
2023-03-25T15:54:52.182Z,15.30
2023-03-25T15:57:22.988Z,15.20
2023-03-25T16:00:25.514Z,15.20
2023-03-25T16:03:00.001Z,15.20
2023-03-25T16:05:27.615Z,15.20
2023-03-25T16:07:56.471Z,15.20
2023-03-25T16:10:36.479Z,15.20
2023-03-25T16:13:06.523Z,15.20
2023-03-25T16:15:36.165Z,15.20
2023-03-25T16:18:07.160Z,15.10
2023-03-25T16:20:36.482Z,15.10
2023-03-25T16:23:06.972Z,15.10
2023-03-25T16:25:40.097Z,15.00
2023-03-25T16:28:28.783Z,15.00
2023-03-25T16:30:56.156Z,15.00
2023-03-25T16:33:28.448Z,14.90
2023-03-25T16:36:04.805Z,14.90
2023-03-25T16:38:32.663Z,14.90
2023-03-25T16:41:02.233Z,14.90
2023-03-25T16:43:30.789Z,14.90
2023-03-25T16:46:00.470Z,14.90
2023-03-25T16:48:33.251Z,14.90
2023-03-25T16:51:08.233Z,14.90
2023-03-25T16:53:39.990Z,14.80
2023-03-25T16:56:10.012Z,14.80
2023-03-25T16:58:57.991Z,14.70
2023-03-25T17:01:25.557Z,14.70
2023-03-25T17:04:05.344Z,14.60
2023-03-25T17:06:41.322Z,14.60
2023-03-25T17:09:15.418Z,14.60
2023-03-25T17:11:43.774Z,14.50
2023-03-25T17:14:38.187Z,14.50
2023-03-25T17:17:33.754Z,14.50
2023-03-25T17:20:09.045Z,14.50
2023-03-25T17:22:39.769Z,14.40
2023-03-25T17:25:27.062Z,14.40
2023-03-25T17:28:00.923Z,14.40
2023-03-25T17:30:42.509Z,14.40
2023-03-25T17:33:14.178Z,14.30
2023-03-25T17:35:43.069Z,14.30
2023-03-25T17:38:21.243Z,14.30
2023-03-25T17:40:59.106Z,14.30
2023-03-25T17:43:27.687Z,14.20
2023-03-25T17:45:54.553Z,14.10
2023-03-25T17:48:21.475Z,14.10
2023-03-25T17:50:56.995Z,14.20
2023-03-25T17:53:24.493Z,14.20
2023-03-25T17:55:52.056Z,14.20
2023-03-25T17:58:20.803Z,14.10
2023-03-25T18:00:49.284Z,14.10
2023-03-25T18:03:19.253Z,14.10
2023-03-25T18:05:51.028Z,14.10
2023-03-25T18:08:18.152Z,14.10
2023-03-25T18:10:45.522Z,14.00
2023-03-25T18:13:12.594Z,14.00
2023-03-25T18:15:40.607Z,14.10
2023-03-25T18:18:13.935Z,14.10
2023-03-25T18:20:40.738Z,14.10
2023-03-25T18:23:07.604Z,14.10
2023-03-25T18:25:34.473Z,14.10
2023-03-25T18:28:01.403Z,14.10
2023-03-25T18:30:34.411Z,14.10
2023-03-25T18:33:01.271Z,14.10
2023-03-25T18:35:28.171Z,14.10
2023-03-25T18:37:56.040Z,14.10
2023-03-25T18:40:27.288Z,14.10
2023-03-25T18:42:55.418Z,14.10
2023-03-25T18:45:24.412Z,14.10
2023-03-25T18:47:51.787Z,14.10
2023-03-25T18:50:23.436Z,14.10
2023-03-25T18:52:50.311Z,14.00
2023-03-25T18:55:17.368Z,14.00
2023-03-25T18:57:44.453Z,14.00
2023-03-25T19:00:19.522Z,13.90
2023-03-25T19:02:46.499Z,13.90
2023-03-25T19:05:13.537Z,13.90
2023-03-25T19:07:41.057Z,13.90
2023-03-25T19:10:11.975Z,13.90
2023-03-25T19:12:38.729Z,13.90
2023-03-25T19:15:05.905Z,13.90
2023-03-25T19:17:32.876Z,13.90
2023-03-25T19:19:59.677Z,14.00
2023-03-25T19:22:26.451Z,14.00
2023-03-25T19:24:53.293Z,14.00
2023-03-25T19:27:20.242Z,14.00
2023-03-25T19:29:47.035Z,13.90
2023-03-25T19:32:13.797Z,14.00
2023-03-25T19:34:40.564Z,14.00
2023-03-25T19:37:07.785Z,14.00
2023-03-25T19:39:34.616Z,14.00
2023-03-25T19:42:02.844Z,14.00
2023-03-25T19:44:29.924Z,14.00
2023-03-25T19:46:56.690Z,14.00
2023-03-25T19:49:38.743Z,14.00
2023-03-25T19:52:07.830Z,14.00
2023-03-25T19:54:34.633Z,14.00
2023-03-25T19:57:01.545Z,13.90
2023-03-25T19:59:28.394Z,13.90
2023-03-25T20:01:55.247Z,13.90
2023-03-25T20:04:22.136Z,13.90
2023-03-25T20:06:48.984Z,13.90
2023-03-25T20:09:15.786Z,13.90
2023-03-25T20:11:42.732Z,13.80
2023-03-25T20:14:09.470Z,13.80
2023-03-25T20:16:36.378Z,13.80
2023-03-25T20:19:04.127Z,13.70
2023-03-25T20:21:31.093Z,13.70
2023-03-25T20:23:59.047Z,13.70
2023-03-25T20:26:25.998Z,13.60
2023-03-25T20:28:52.828Z,13.60
2023-03-25T20:31:22.690Z,13.60
2023-03-25T20:33:50.405Z,13.60
2023-03-25T20:36:21.668Z,13.50
2023-03-25T20:38:57.146Z,13.50
2023-03-25T20:41:25.588Z,13.40
2023-03-25T20:43:52.352Z,13.40
2023-03-25T20:46:23.829Z,13.40
2023-03-25T20:48:50.854Z,13.40
2023-03-25T20:51:17.915Z,13.30
2023-03-25T20:53:45.180Z,13.30
2023-03-25T20:56:12.046Z,13.30
2023-03-25T20:58:38.976Z,13.30
2023-03-25T21:01:05.770Z,13.30
2023-03-25T21:03:32.718Z,13.20
2023-03-25T21:06:07.314Z,13.20
2023-03-25T21:08:37.441Z,13.20
2023-03-25T21:11:06.826Z,13.10
2023-03-25T21:13:34.167Z,13.10
2023-03-25T21:16:02.161Z,13.10
2023-03-25T21:18:29.324Z,13.10
2023-03-25T21:20:58.282Z,13.10
2023-03-25T21:23:31.884Z,13.10
2023-03-25T21:26:00.836Z,13.10
2023-03-25T21:28:29.567Z,13.00
2023-03-25T21:31:04.899Z,13.00
2023-03-25T21:33:37.392Z,13.00
2023-03-25T21:36:06.412Z,13.00
2023-03-25T21:38:34.218Z,13.00
2023-03-25T21:41:03.049Z,13.00
2023-03-25T21:43:31.396Z,12.90
2023-03-25T21:45:58.355Z,12.90
2023-03-25T21:48:33.227Z,12.90
2023-03-25T21:51:01.537Z,12.80
2023-03-25T21:53:32.773Z,12.80
2023-03-25T21:56:04.483Z,12.80
2023-03-25T21:58:36.317Z,12.80
2023-03-25T22:01:05.626Z,12.80
2023-03-25T22:03:37.226Z,12.80
2023-03-25T22:06:16.631Z,12.70
2023-03-25T22:08:43.967Z,12.70
2023-03-25T22:11:14.762Z,12.70
2023-03-25T22:13:42.646Z,12.70
2023-03-25T22:16:11.757Z,12.60
2023-03-25T22:18:39.235Z,12.60
2023-03-25T22:21:13.616Z,12.60
2023-03-25T22:23:41.607Z,12.50
2023-03-25T22:26:11.019Z,12.50
2023-03-25T22:28:39.031Z,12.50
2023-03-25T22:31:18.777Z,12.50
2023-03-25T22:33:49.153Z,12.50
2023-03-25T22:36:16.810Z,12.50
2023-03-25T22:38:46.116Z,12.50
2023-03-25T22:41:16.635Z,12.50
2023-03-25T22:55:07.832Z,12.60
2023-03-25T22:57:35.785Z,12.60
2023-03-25T23:00:04.735Z,12.60
2023-03-25T23:02:31.608Z,12.70
2023-03-25T23:04:58.507Z,12.60
2023-03-25T23:07:26.457Z,12.70
2023-03-25T23:09:53.200Z,12.70
2023-03-25T23:12:25.372Z,12.70
2023-03-25T23:14:55.723Z,12.70
2023-03-25T23:17:24.613Z,12.70
2023-03-25T23:19:52.490Z,12.70
2023-03-25T23:22:19.907Z,12.70
2023-03-25T23:24:46.921Z,12.60
2023-03-25T23:27:14.102Z,12.70
2023-03-25T23:29:41.703Z,12.70
2023-03-25T23:32:09.540Z,12.70
2023-03-25T23:34:36.674Z,12.70
2023-03-25T23:37:04.277Z,12.70
2023-03-25T23:39:31.108Z,12.70
2023-03-25T23:41:58.133Z,12.70
2023-03-25T23:44:25.072Z,12.70
2023-03-25T23:46:51.951Z,12.70
2023-03-25T23:49:20.270Z,12.70
2023-03-25T23:51:47.558Z,12.70
2023-03-25T23:54:15.796Z,12.70
2023-03-25T23:56:43.475Z,12.70
2023-03-25T23:59:12.070Z,12.60
